createdAt,value
2018-09-23T00:02:18.089Z,15.72
2018-09-23T00:04:16.775Z,16.31
2018-09-23T00:08:19.006Z,15.47
2018-09-23T00:14:18.390Z,16.59
2018-09-23T00:18:19.123Z,16.27
2018-09-23T00:24:19.901Z,17.05
2018-09-23T00:28:20.680Z,16.07
2018-09-23T00:30:25.918Z,17.07
2018-09-23T00:34:22.763Z,16.64
2018-09-23T00:40:23.549Z,16.34
2018-09-23T00:44:24.270Z,16.51
2018-09-23T00:50:27.675Z,16.01
2018-09-23T00:56:25.853Z,17.22
2018-09-23T01:00:30.908Z,15.89
2018-09-23T01:06:27.456Z,15.53
2018-09-23T01:10:29.832Z,15.58
2018-09-23T01:16:29.158Z,16.47
2018-09-23T01:22:29.866Z,16.12
2018-09-23T01:26:34.705Z,15.78
2018-09-23T01:32:31.472Z,16.61
2018-09-23T01:36:32.403Z,15.71
2018-09-23T01:42:33.230Z,16.11
2018-09-23T01:48:35.927Z,15.76
2018-09-23T01:52:41.739Z,15.9
2018-09-23T01:58:51.334Z,14.96
2018-09-23T02:02:55.167Z,14.87
2018-09-23T02:08:57.252Z,15.25
2018-09-23T02:12:58.974Z,14.39
2018-09-23T02:19:00.454Z,15.12
2018-09-23T02:25:05.252Z,15.84
2018-09-23T02:29:09.541Z,15.76
2018-09-23T02:35:10.263Z,16
2018-09-23T02:39:11.394Z,16.27
2018-09-23T02:45:16.734Z,16.68
2018-09-23T02:51:15.383Z,14.68
2018-09-23T02:55:16.209Z,14.93
2018-09-23T03:01:18.988Z,16.04
2018-09-23T03:05:19.085Z,15.52
2018-09-23T03:11:22.777Z,15.77
2018-09-23T03:17:23.558Z,16.32
2018-09-23T03:21:24.316Z,15.94
2018-09-23T03:27:25.087Z,17.11
2018-09-23T03:31:26.020Z,16.45
2018-09-23T03:37:26.806Z,16.2
2018-09-23T03:43:27.739Z,17.41
2018-09-23T03:47:28.446Z,17.15
2018-09-23T03:53:29.141Z,17.43
2018-09-23T03:57:29.925Z,17.73
2018-09-23T04:03:30.699Z,17.49
2018-09-23T04:09:31.457Z,17.76
2018-09-23T04:13:32.272Z,16.92
2018-09-23T04:19:33.027Z,17.75
2018-09-23T04:23:33.797Z,17.79
2018-09-23T04:29:34.642Z,17.75
2018-09-23T04:35:35.394Z,18.69
2018-09-23T04:39:36.213Z,19.08
2018-09-23T04:45:37.009Z,18.15
2018-09-23T04:49:37.909Z,18.19
2018-09-23T04:55:38.774Z,20.24
2018-09-23T05:01:43.679Z,19.63
2018-09-23T05:05:40.270Z,19.07
2018-09-23T05:11:41.140Z,20.14
2018-09-23T05:15:42.110Z,19.78
2018-09-23T05:21:42.838Z,19.74
2018-09-23T05:27:43.641Z,19.43
2018-09-23T05:31:44.385Z,18.21
2018-09-23T05:37:45.224Z,18.52
2018-09-23T05:41:45.994Z,18.65
2018-09-23T05:43:46.684Z,20.22
2018-09-23T05:47:47.437Z,19.96
2018-09-23T05:53:48.321Z,24.32
2018-09-23T05:57:49.066Z,25.22
2018-09-23T06:03:49.786Z,23.38
2018-09-23T06:07:50.547Z,22.72
2018-09-23T06:09:51.314Z,21.91
2018-09-23T06:13:52.051Z,21.23
2018-09-23T06:19:52.861Z,22.44
2018-09-23T06:23:53.559Z,21.67
2018-09-23T06:29:54.361Z,22.83
2018-09-23T06:33:55.106Z,21.7
2018-09-23T06:35:55.785Z,21.9
2018-09-23T06:39:56.518Z,22.35
2018-09-23T06:45:57.407Z,20.32
2018-09-23T06:49:58.223Z,19.76
2018-09-23T06:55:59.128Z,19.92
2018-09-23T06:59:59.827Z,20.25
2018-09-23T07:02:00.575Z,20.79
2018-09-23T07:06:01.288Z,19.94
2018-09-23T07:12:02.045Z,21.07
2018-09-23T07:16:02.879Z,20.38
2018-09-23T07:22:03.607Z,22.46
2018-09-23T07:26:04.362Z,22.1
2018-09-23T07:28:05.123Z,22.08
2018-09-23T07:32:05.907Z,22.76
2018-09-23T07:38:06.559Z,22.46
2018-09-23T07:42:07.265Z,21.88
2018-09-23T07:48:08.169Z,17.68
2018-09-23T07:52:08.841Z,17.56
2018-09-23T07:54:09.516Z,18.36
2018-09-23T07:58:10.189Z,17.05
2018-09-23T08:04:10.988Z,17.26
2018-09-23T08:08:11.736Z,16.89
2018-09-23T08:14:12.785Z,16.47
2018-09-23T08:20:13.331Z,15.61
2018-09-23T08:24:13.975Z,15.67
2018-09-23T08:30:15.070Z,16.36
2018-09-23T08:34:15.813Z,16.6
2018-09-23T08:40:16.639Z,15.31
2018-09-23T08:46:17.407Z,16.96
2018-09-23T08:50:19.473Z,15.99
2018-09-23T08:56:18.774Z,15.74
2018-09-23T09:00:22.435Z,16.49
2018-09-23T09:06:20.956Z,15.73
2018-09-23T09:12:21.764Z,14.22
2018-09-23T09:16:22.448Z,15.53
2018-09-23T09:22:23.289Z,15.2
2018-09-23T09:26:23.978Z,13.98
2018-09-23T09:32:24.720Z,13.43
2018-09-23T09:38:25.539Z,14.51
2018-09-23T09:42:26.233Z,13.81
2018-09-23T09:48:27.174Z,14.61
2018-09-23T09:52:27.793Z,14.34
2018-09-23T09:58:28.487Z,13.55
2018-09-23T10:04:29.229Z,13.57
2018-09-23T10:08:29.974Z,13.28
2018-09-23T10:14:30.702Z,13.58
2018-09-23T10:18:31.413Z,13.59
2018-09-23T10:20:32.078Z,13.95
2018-09-23T10:24:32.936Z,13.7
2018-09-23T10:30:35.035Z,14.5
2018-09-23T10:34:34.503Z,13.84
2018-09-23T10:40:35.332Z,13.3
2018-09-23T10:44:36.167Z,14.22
2018-09-23T10:46:36.738Z,13.01
2018-09-23T10:50:37.525Z,13.15
2018-09-23T10:56:38.244Z,13.32
2018-09-23T11:00:38.982Z,13.86
2018-09-23T11:06:39.656Z,12.38
2018-09-23T11:10:40.385Z,12.83
2018-09-23T11:12:41.061Z,12.55
2018-09-23T11:16:41.792Z,12.57
2018-09-23T11:22:42.494Z,11.31
2018-09-23T11:26:43.317Z,11.8
2018-09-23T11:32:44.011Z,11.86
2018-09-23T11:36:45.418Z,12.01
2018-09-23T11:38:46.298Z,11.25
2018-09-23T11:42:47.248Z,11.71
2018-09-23T11:48:47.794Z,10.96
2018-09-23T11:52:48.634Z,10.64
2018-09-23T11:58:49.640Z,7.9
2018-09-23T12:02:50.264Z,7.76
2018-09-23T12:04:50.908Z,7.82
2018-09-23T12:08:51.633Z,8.15
2018-09-23T12:14:52.359Z,7.61
2018-09-23T12:18:53.030Z,7.63
2018-09-23T12:24:53.891Z,6.69
2018-09-23T12:30:54.611Z,7.39
2018-09-23T12:34:55.371Z,6.73
2018-09-23T12:40:56.078Z,7.44
2018-09-23T12:44:56.757Z,7.38
2018-09-23T12:50:57.527Z,8.19
2018-09-23T12:56:58.299Z,7.44
2018-09-23T13:00:59.107Z,7.16
2018-09-23T13:06:59.681Z,8.18
2018-09-23T13:11:01.033Z,8.25
2018-09-23T13:17:01.963Z,7.8
2018-09-23T13:23:02.739Z,7.27
2018-09-23T13:27:03.579Z,8.11
2018-09-23T13:33:04.318Z,9.16
2018-09-23T13:37:05.040Z,8.56
2018-09-23T13:43:05.893Z,7.53
2018-09-23T13:49:06.635Z,8.33
2018-09-23T13:53:07.335Z,8.01
2018-09-23T13:59:08.055Z,7.39
2018-09-23T14:03:08.776Z,7.51
2018-09-23T14:05:09.528Z,7.73
2018-09-23T14:09:10.105Z,7.46
2018-09-23T14:15:10.804Z,7.25
2018-09-23T14:19:11.517Z,7.59
2018-09-23T14:25:12.299Z,7.71
2018-09-23T14:29:13.068Z,7.48
2018-09-23T14:31:13.793Z,7.83
2018-09-23T14:35:14.444Z,7.38
2018-09-23T14:41:15.167Z,8.04
2018-09-23T14:45:15.874Z,7.03
2018-09-23T14:51:16.793Z,7.74
2018-09-23T14:55:17.612Z,7.54
2018-09-23T14:57:18.451Z,6.82
2018-09-23T15:01:19.189Z,7.45
2018-09-23T15:07:20.006Z,7.1
2018-09-23T15:11:20.784Z,7.08
2018-09-23T15:17:21.482Z,6.63
2018-09-23T15:21:22.631Z,7.3
2018-09-23T15:23:23.290Z,7.56
2018-09-23T15:27:24.068Z,6.74
2018-09-23T15:33:24.798Z,6.5
2018-09-23T15:37:25.582Z,7.23
2018-09-23T15:43:26.264Z,7.03
2018-09-23T15:47:27.029Z,7.21
2018-09-23T15:49:27.640Z,6.87
2018-09-23T15:53:28.467Z,6.7
2018-09-23T15:59:29.158Z,7.15
2018-09-23T16:03:29.844Z,6.89
2018-09-23T16:09:30.571Z,7.39
2018-09-23T16:15:31.342Z,8.63
2018-09-23T16:19:32.053Z,7.01
2018-09-23T16:25:32.737Z,6.95
2018-09-23T16:29:33.588Z,7.48
2018-09-23T16:35:34.371Z,7.72
2018-09-23T16:41:35.034Z,6.93
2018-09-23T16:45:35.701Z,7.37
2018-09-23T16:51:36.411Z,7.91
2018-09-23T16:55:37.115Z,8.07
2018-09-23T17:01:37.822Z,9.14
2018-09-23T17:07:38.690Z,9.93
2018-09-23T17:11:39.382Z,9.61
2018-09-23T17:17:40.075Z,8.95
2018-09-23T17:21:40.846Z,8.68
2018-09-23T17:23:41.608Z,9.04
2018-09-23T17:27:42.321Z,8.8
2018-09-23T17:33:43.103Z,8.65
2018-09-23T17:37:43.826Z,8.99
2018-09-23T17:43:44.686Z,9.44
2018-09-23T17:47:45.390Z,8.9
2018-09-23T17:49:46.131Z,8.73
2018-09-23T17:53:46.828Z,8.54
2018-09-23T17:59:47.626Z,8.86
2018-09-23T18:03:48.486Z,7.8
2018-09-23T18:09:49.187Z,7.67
2018-09-23T18:13:49.954Z,8.01
2018-09-23T18:15:50.641Z,8.96
2018-09-23T18:19:51.428Z,8.77
2018-09-23T18:25:52.191Z,7.56
2018-09-23T18:29:53.000Z,7.43
2018-09-23T18:35:53.689Z,6.9
2018-09-23T18:39:54.420Z,6.48
2018-09-23T18:41:55.134Z,6.85
2018-09-23T18:45:55.790Z,6.5
2018-09-23T18:51:56.502Z,6.85
2018-09-23T18:55:57.207Z,6.77
2018-09-23T19:01:58.158Z,7.24
2018-09-23T19:05:59.034Z,6.99
2018-09-23T19:07:59.689Z,6.92
2018-09-23T19:12:00.413Z,7.36
2018-09-23T19:18:01.414Z,7.3
2018-09-23T19:22:02.142Z,7.21
2018-09-23T19:28:02.932Z,8.34
2018-09-23T19:32:04.083Z,8.36
2018-09-23T19:34:04.809Z,7.33
2018-09-23T19:38:05.650Z,7.62
2018-09-23T19:44:06.431Z,8.11
2018-09-23T19:48:07.170Z,7.65
2018-09-23T19:54:08.759Z,7.53
2018-09-23T20:00:13.399Z,7.73
2018-09-23T20:04:11.439Z,7.64
2018-09-23T20:10:12.617Z,7.48
2018-09-23T20:14:13.345Z,7.1
2018-09-23T20:20:14.185Z,7.97
2018-09-23T20:26:15.035Z,8.11
2018-09-23T20:30:17.257Z,7.6
2018-09-23T20:36:19.684Z,7.99
2018-09-23T20:40:20.512Z,7.6
2018-09-23T20:46:21.283Z,6.75
2018-09-23T20:52:22.089Z,6.68
2018-09-23T20:56:22.988Z,7.38
2018-09-23T21:02:29.187Z,6.64
2018-09-23T21:06:29.998Z,6.91
2018-09-23T21:12:30.636Z,6.94
2018-09-23T21:16:31.377Z,6.3
2018-09-23T21:18:31.989Z,6.73
2018-09-23T21:22:32.762Z,6.52
2018-09-23T21:28:33.494Z,7.01
2018-09-23T21:32:34.342Z,6.94
2018-09-23T21:38:34.904Z,7.02
2018-09-23T21:44:35.643Z,6.46
2018-09-23T21:48:36.363Z,6.34
2018-09-23T21:54:37.249Z,6.93
2018-09-23T21:58:37.978Z,6.61
2018-09-23T22:04:38.785Z,6.25
2018-09-23T22:10:39.502Z,6.85
2018-09-23T22:14:40.232Z,5.98
2018-09-23T22:20:40.982Z,6.53
2018-09-23T22:24:41.788Z,6.11
2018-09-23T22:30:42.486Z,6.51
2018-09-23T22:36:43.241Z,7.7
2018-09-23T22:40:44.014Z,7.54
2018-09-23T22:46:44.793Z,6.96
2018-09-23T22:50:45.644Z,6.78
2018-09-23T22:56:46.437Z,6.64
2018-09-23T23:02:47.174Z,7.32
2018-09-23T23:06:47.842Z,7.28
2018-09-23T23:12:48.616Z,7.69
2018-09-23T23:16:49.396Z,6.86
2018-09-23T23:22:50.220Z,7.57
2018-09-23T23:28:50.990Z,7.26
2018-09-23T23:32:51.677Z,6.91
2018-09-23T23:38:52.524Z,7.02
2018-09-23T23:42:53.237Z,6.64
2018-09-23T23:44:53.916Z,7.23
2018-09-23T23:48:54.733Z,6.89
2018-09-23T23:54:55.602Z,7.26
2018-09-23T23:58:56.389Z,7.38
